Time;durP1;ratioP1;P1;durP2;ratioP2;P2;SDS_P1;SDS_P2;PMS_P1;PMS_P2;Temp;Humidity;BMP_temperature;BMP_pressure;BME280_temperature;BME280_humidity;BME280_pressure;Samples;Min_cycle;Max_cycle;Signal;HPM_P1;HPM_P2
2021/01/17 00:02:09;;;;;;;28.23;16.83;;;;;;;-0.26;100.00;100375.22;5141236;27;20440;-36
2021/01/17 00:04:57;;;;;;;29.30;16.63;;;;;;;-0.30;100.00;100371.72;5140532;27;20459;-34
2021/01/17 00:07:46;;;;;;;30.93;18.20;;;;;;;-0.41;100.00;100356.09;5140389;27;20435;-32
2021/01/17 00:10:34;;;;;;;30.57;16.30;;;;;;;-0.63;100.00;100360.31;5140290;27;20533;-33
2021/01/17 00:13:23;;;;;;;37.80;20.07;;;;;;;-0.48;100.00;100351.56;5140566;27;20444;-32
2021/01/17 00:16:10;;;;;;;31.50;17.13;;;;;;;-0.65;100.00;100356.84;5140081;27;20483;-33
2021/01/17 00:18:56;;;;;;;32.33;16.87;;;;;;;-0.40;100.00;100355.25;5140554;27;20540;-33
2021/01/17 00:21:46;;;;;;;30.20;16.23;;;;;;;-0.29;100.00;100344.63;5140009;27;20468;-36
2021/01/17 00:24:34;;;;;;;30.97;17.80;;;;;;;-0.48;100.00;100346.50;5139701;27;20451;-32
2021/01/17 00:27:21;;;;;;;28.13;15.87;;;;;;;-0.43;100.00;100347.53;5140021;27;20439;-34
2021/01/17 00:30:10;;;;;;;27.63;16.17;;;;;;;-0.47;100.00;100338.06;5140348;27;20597;-35
2021/01/17 00:32:58;;;;;;;26.77;16.03;;;;;;;-0.31;100.00;100336.94;5140303;27;20494;-34
2021/01/17 00:35:47;;;;;;;27.13;15.90;;;;;;;-0.52;100.00;100334.50;5140471;27;20869;-34
2021/01/17 00:38:33;;;;;;;27.70;15.70;;;;;;;-0.33;100.00;100332.59;5139788;27;20467;-34
2021/01/17 00:41:20;;;;;;;24.87;15.50;;;;;;;-0.24;100.00;100332.94;5140042;27;20500;-34
2021/01/17 00:44:07;;;;;;;30.40;17.03;;;;;;;-0.33;100.00;100327.53;5139988;27;20493;-35
2021/01/17 00:46:53;;;;;;;27.20;16.17;;;;;;;-0.49;100.00;100326.13;5139785;27;20446;-33
2021/01/17 00:49:43;;;;;;;27.40;15.87;;;;;;;-0.38;100.00;100322.28;5139647;27;20781;-35
2021/01/17 00:52:33;;;;;;;27.97;16.43;;;;;;;-0.24;100.00;100321.13;5139939;27;20450;-32
2021/01/17 00:55:19;;;;;;;30.27;16.57;;;;;;;-0.46;100.00;100309.31;5140007;27;20552;-34
2021/01/17 00:58:05;;;;;;;25.70;15.10;;;;;;;-0.44;100.00;100307.69;5139958;27;20443;-37
2021/01/17 01:00:52;;;;;;;28.00;15.83;;;;;;;-0.33;100.00;100299.56;5139354;27;20721;-34
2021/01/17 01:03:38;;;;;;;28.47;16.37;;;;;;;-0.31;100.00;100297.97;5139344;27;20505;-34
2021/01/17 01:06:28;;;;;;;27.40;16.20;;;;;;;-0.22;100.00;100289.00;5139313;27;20447;-32
2021/01/17 01:09:16;;;;;;;29.83;17.03;;;;;;;-0.38;100.00;100297.72;5139644;27;20539;-34
2021/01/17 01:12:02;;;;;;;29.83;17.43;;;;;;;-0.35;100.00;100295.31;5139448;27;20466;-34
2021/01/17 01:14:49;;;;;;;30.93;16.83;;;;;;;-0.45;100.00;100289.84;5139499;27;20934;-32
2021/01/17 01:17:36;;;;;;;30.27;15.97;;;;;;;-0.41;100.00;100287.50;5139058;27;20567;-37
2021/01/17 01:20:22;;;;;;;26.60;16.43;;;;;;;-0.36;100.00;100295.25;5139091;27;20439;-38
2021/01/17 01:23:08;;;;;;;29.07;16.37;;;;;;;-0.27;100.00;100287.97;5139167;27;20487;-34
2021/01/17 01:26:00;;;;;;;26.27;16.93;;;;;;;-0.35;100.00;100291.91;5139041;27;20443;-33
2021/01/17 01:28:49;;;;;;;31.47;17.60;;;;;;;-0.24;100.00;100294.84;5138897;27;20436;-34
2021/01/17 01:31:43;;;;;;;32.13;17.83;;;;;;;-0.29;100.00;100292.13;5139112;27;20525;-31
2021/01/17 01:34:31;;;;;;;31.03;16.27;;;;;;;-0.30;100.00;100294.59;5138116;27;20741;-32
2021/01/17 01:37:18;;;;;;;24.97;16.13;;;;;;;-0.16;100.00;100285.78;5138241;27;20750;-31
2021/01/17 01:40:05;;;;;;;35.87;18.40;;;;;;;-0.31;100.00;100282.72;5138869;27;20436;-32
2021/01/17 01:42:51;;;;;;;28.03;16.83;;;;;;;-0.25;100.00;100288.03;5138863;27;20853;-33
2021/01/17 01:45:38;;;;;;;27.33;15.83;;;;;;;-0.26;100.00;100288.81;5138456;27;20444;-34
2021/01/17 01:48:24;;;;;;;31.33;16.00;;;;;;;-0.19;100.00;100278.03;5138226;27;20435;-37
2021/01/17 01:51:13;;;;;;;31.63;17.50;;;;;;;-0.13;100.00;100281.66;5138600;27;20440;-34
2021/01/17 01:54:00;;;;;;;30.07;17.07;;;;;;;-0.24;100.00;100272.81;5138411;27;20493;-32
2021/01/17 01:56:46;;;;;;;29.50;16.93;;;;;;;-0.20;100.00;100278.88;5138946;27;20513;-33
2021/01/17 01:59:33;;;;;;;29.87;16.60;;;;;;;-0.20;100.00;100277.19;5138326;27;20478;-31
2021/01/17 02:02:20;;;;;;;30.53;18.17;;;;;;;-0.18;100.00;100277.22;5138119;27;20521;-33
2021/01/17 02:05:10;;;;;;;35.73;19.87;;;;;;;-0.25;100.00;100266.00;5138290;27;20443;-35
2021/01/17 02:08:22;;;;;;;33.47;18.43;;;;;;;-0.41;100.00;100269.72;5138099;27;20439;-34
2021/01/17 02:11:21;;;;;;;43.97;23.37;;;;;;;-0.23;100.00;100266.06;5138334;27;20537;-33
2021/01/17 02:14:13;;;;;;;44.07;22.47;;;;;;;-0.18;100.00;100269.59;5138072;27;20434;-34
2021/01/17 02:17:03;;;;;;;34.80;17.70;;;;;;;-0.21;100.00;100269.53;5138016;27;20474;-33
2021/01/17 02:20:09;;;;;;;31.10;16.40;;;;;;;-0.15;100.00;100262.97;5138072;27;20440;-34
2021/01/17 02:23:07;;;;;;;31.57;16.93;;;;;;;0.01;100.00;100256.69;5138144;27;20435;-33
2021/01/17 02:25:54;;;;;;;30.73;18.07;;;;;;;0.05;100.00;100253.44;5138092;28;20447;-34
2021/01/17 02:28:41;;;;;;;27.60;16.77;;;;;;;-0.14;100.00;100258.75;5138039;28;20540;-35
2021/01/17 02:31:28;;;;;;;30.40;17.33;;;;;;;-0.22;100.00;100266.13;5138179;28;20444;-35
2021/01/17 02:34:16;;;;;;;28.60;16.73;;;;;;;-0.19;100.00;100265.34;5137893;28;20439;-33
2021/01/17 02:37:10;;;;;;;29.40;17.27;;;;;;;-0.25;100.00;100265.16;5137595;28;20528;-32
2021/01/17 02:40:04;;;;;;;27.33;16.87;;;;;;;-0.06;100.00;100270.91;5137892;28;20463;-31
2021/01/17 02:42:52;;;;;;;27.83;16.43;;;;;;;0.12;100.00;100274.88;5137986;28;20431;-34
2021/01/17 02:45:38;;;;;;;28.63;16.83;;;;;;;0.06;100.00;100274.66;5138499;28;20532;-36
2021/01/17 02:48:25;;;;;;;30.97;17.70;;;;;;;0.15;100.00;100280.06;5141839;27;20447;-32
2021/01/17 02:51:11;;;;;;;29.67;16.50;;;;;;;0.00;100.00;100273.63;5142190;27;20593;-33
2021/01/17 02:54:07;;;;;;;30.00;17.37;;;;;;;0.28;100.00;100275.41;5142276;27;20588;-34
2021/01/17 02:57:00;;;;;;;28.70;16.67;;;;;;;-0.23;100.00;100276.22;5142377;27;20474;-34
2021/01/17 02:59:55;;;;;;;28.97;17.13;;;;;;;0.14;100.00;100271.56;5141358;27;20478;-32
2021/01/17 03:02:44;;;;;;;30.67;17.83;;;;;;;0.04;100.00;100269.53;5141826;27;20817;-32
2021/01/17 03:05:31;;;;;;;31.37;17.33;;;;;;;0.26;100.00;100274.50;5141514;27;20452;-34
2021/01/17 03:08:18;;;;;;;30.87;17.80;;;;;;;0.13;100.00;100264.75;5141699;27;20443;-38
2021/01/17 03:11:06;;;;;;;32.17;17.47;;;;;;;0.25;100.00;100266.81;5141710;27;20596;-33
2021/01/17 03:13:54;;;;;;;28.60;18.07;;;;;;;0.14;100.00;100263.06;5141939;27;20528;-35
2021/01/17 03:16:41;;;;;;;29.23;16.73;;;;;;;0.39;100.00;100259.66;5141635;27;20470;-33
2021/01/17 03:19:28;;;;;;;26.50;16.87;;;;;;;0.19;100.00;100267.50;5141817;27;20440;-33
2021/01/17 03:22:16;;;;;;;33.30;19.13;;;;;;;0.40;100.00;100259.66;5141669;27;20443;-34
2021/01/17 03:25:04;;;;;;;30.40;17.73;;;;;;;0.30;100.00;100252.59;5141658;27;20459;-35
2021/01/17 03:27:49;;;;;;;33.77;19.23;;;;;;;0.18;100.00;100263.22;5141027;27;20885;-34
2021/01/17 03:30:36;;;;;;;32.73;20.07;;;;;;;0.29;100.00;100264.44;5141346;27;20435;-33
2021/01/17 03:33:23;;;;;;;32.33;19.53;;;;;;;0.41;100.00;100253.78;5141165;27;20489;-34
2021/01/17 03:36:10;;;;;;;35.67;21.07;;;;;;;0.45;100.00;100250.50;5141007;27;20462;-35
2021/01/17 03:38:57;;;;;;;31.77;18.63;;;;;;;0.36;100.00;100245.16;5141082;27;20447;-34
2021/01/17 03:41:43;;;;;;;33.17;19.27;;;;;;;0.17;100.00;100243.72;5141142;27;20488;-34
2021/01/17 03:44:30;;;;;;;31.57;19.47;;;;;;;0.24;100.00;100240.53;5141258;27;20521;-33
2021/01/17 03:47:17;;;;;;;37.53;22.40;;;;;;;0.31;100.00;100239.91;5141362;27;20836;-32
2021/01/17 03:50:04;;;;;;;33.87;20.37;;;;;;;0.32;100.00;100236.56;5140985;27;20447;-33
2021/01/17 03:52:50;;;;;;;35.33;19.87;;;;;;;0.20;100.00;100233.59;5140613;27;20440;-33
2021/01/17 03:55:36;;;;;;;35.37;20.43;;;;;;;0.22;100.00;100233.66;5141266;27;20501;-33
2021/01/17 03:58:23;;;;;;;36.10;20.03;;;;;;;0.19;100.00;100238.66;5139866;27;20815;-34
2021/01/17 04:01:09;;;;;;;38.47;21.30;;;;;;;0.32;100.00;100234.00;5140417;27;20439;-33
2021/01/17 04:03:57;;;;;;;34.67;20.67;;;;;;;0.40;100.00;100241.88;5141265;27;20569;-34
2021/01/17 04:06:44;;;;;;;34.37;20.43;;;;;;;0.51;100.00;100244.75;5140736;27;20857;-34
2021/01/17 04:09:33;;;;;;;32.77;20.17;;;;;;;0.17;100.00;100242.84;5140293;27;20877;-33
2021/01/17 04:12:19;;;;;;;35.87;22.00;;;;;;;0.06;100.00;100239.94;5140921;27;20451;-34
2021/01/17 04:15:06;;;;;;;36.70;20.23;;;;;;;0.10;100.00;100230.72;5140648;27;20490;-35
2021/01/17 04:17:53;;;;;;;40.77;22.50;;;;;;;0.24;100.00;100232.03;5140262;27;20773;-35
2021/01/17 04:20:41;;;;;;;37.83;22.57;;;;;;;0.16;100.00;100229.25;5140595;27;20911;-33
2021/01/17 04:23:28;;;;;;;34.77;21.30;;;;;;;0.39;100.00;100229.13;5140802;27;20444;-35
2021/01/17 04:26:18;;;;;;;40.00;23.17;;;;;;;0.33;100.00;100228.13;5140504;27;20438;-37
2021/01/17 04:29:05;;;;;;;35.50;18.97;;;;;;;-0.02;100.00;100229.53;5140463;27;20722;-34
2021/01/17 04:31:52;;;;;;;38.70;22.90;;;;;;;0.43;100.00;100229.25;5140397;27;20837;-32
2021/01/17 04:34:39;;;;;;;40.77;23.70;;;;;;;0.42;100.00;100239.38;5140180;27;20440;-35
2021/01/17 04:37:26;;;;;;;40.80;21.93;;;;;;;0.14;100.00;100237.66;5139827;27;20480;-34
2021/01/17 04:40:14;;;;;;;44.60;23.20;;;;;;;0.15;100.00;100242.78;5140021;27;20908;-34
2021/01/17 04:43:08;;;;;;;41.83;23.70;;;;;;;0.46;100.00;100238.66;5139572;27;20719;-31
2021/01/17 04:45:57;;;;;;;39.20;21.90;;;;;;;0.30;100.00;100240.72;5140345;27;20442;-33
2021/01/17 04:48:47;;;;;;;37.80;21.20;;;;;;;0.36;100.00;100241.75;5140025;27;20460;-36
2021/01/17 04:51:34;;;;;;;35.03;21.80;;;;;;;0.22;100.00;100237.06;5139952;27;20511;-33
2021/01/17 04:54:21;;;;;;;42.97;24.33;;;;;;;0.30;100.00;100239.88;5139855;27;20439;-37
2021/01/17 04:57:12;;;;;;;43.27;23.13;;;;;;;0.44;100.00;100233.53;5139967;27;20495;-37
2021/01/17 05:00:06;;;;;;;46.70;26.80;;;;;;;0.55;100.00;100244.91;5139479;27;20574;-32
2021/01/17 05:03:06;;;;;;;43.80;23.93;;;;;;;0.71;100.00;100237.75;5139473;27;20455;-33
2021/01/17 05:06:06;;;;;;;42.53;23.63;;;;;;;0.55;100.00;100238.97;5139509;27;20970;-37
2021/01/17 05:08:58;;;;;;;49.60;24.40;;;;;;;0.54;100.00;100242.31;5139145;27;20869;-35
2021/01/17 05:11:50;;;;;;;38.87;22.77;;;;;;;0.74;100.00;100238.69;5139403;27;20436;-32
2021/01/17 05:14:42;;;;;;;44.37;23.33;;;;;;;0.46;100.00;100241.19;5139649;27;20736;-37
2021/01/17 05:17:36;;;;;;;39.53;22.33;;;;;;;0.44;100.00;100243.69;5139123;27;20495;-33
2021/01/17 05:20:23;;;;;;;40.63;24.07;;;;;;;0.46;100.00;100242.06;5138996;27;20448;-34
2021/01/17 05:23:10;;;;;;;43.90;24.57;;;;;;;0.26;100.00;100249.06;5139305;27;20719;-33
2021/01/17 05:25:57;;;;;;;52.10;25.40;;;;;;;0.29;100.00;100250.84;5139025;27;20447;-33
2021/01/17 05:28:43;;;;;;;44.47;24.03;;;;;;;0.48;100.00;100262.47;5139046;27;20513;-33
2021/01/17 05:31:31;;;;;;;48.70;25.57;;;;;;;0.50;100.00;100259.16;5139216;27;20757;-32
2021/01/17 05:34:19;;;;;;;42.63;24.33;;;;;;;0.62;100.00;100263.75;5139028;27;20549;-32
2021/01/17 05:37:06;;;;;;;43.43;25.60;;;;;;;0.46;100.00;100267.50;5138746;27;20532;-31
2021/01/17 05:39:58;;;;;;;44.10;25.77;;;;;;;0.33;100.00;100255.22;5138810;27;20447;-32
2021/01/17 05:42:45;;;;;;;46.87;24.93;;;;;;;0.27;100.00;100258.44;5138917;27;20842;-34
2021/01/17 05:45:32;;;;;;;52.07;26.97;;;;;;;0.15;100.00;100257.19;5139023;27;20438;-32
2021/01/17 05:48:20;;;;;;;52.50;26.07;;;;;;;0.18;100.00;100253.06;5138651;27;20529;-33
2021/01/17 05:51:08;;;;;;;46.17;25.17;;;;;;;0.08;100.00;100258.66;5138809;27;20442;-32
2021/01/17 05:53:55;;;;;;;47.33;25.43;;;;;;;0.25;100.00;100266.81;5138776;27;20813;-35
2021/01/17 05:56:42;;;;;;;51.33;25.13;;;;;;;0.15;100.00;100260.59;5138727;27;20841;-34
2021/01/17 05:59:37;;;;;;;50.87;27.20;;;;;;;0.42;100.00;100269.91;5138454;27;20544;-32
2021/01/17 06:02:24;;;;;;;52.77;29.17;;;;;;;0.54;100.00;100272.84;5138563;27;20451;-34
2021/01/17 06:05:13;;;;;;;48.70;26.70;;;;;;;0.50;100.00;100269.34;5138235;27;20485;-32
2021/01/17 06:08:01;;;;;;;50.67;26.20;;;;;;;0.56;100.00;100276.31;5138307;27;20435;-35
2021/01/17 06:10:48;;;;;;;51.97;26.43;;;;;;;0.61;100.00;100272.22;5138615;27;20443;-31
2021/01/17 06:13:37;;;;;;;47.03;25.97;;;;;;;0.66;100.00;100271.53;5137826;27;20464;-32
2021/01/17 06:16:30;;;;;;;52.03;26.70;;;;;;;0.73;100.00;100264.09;5138544;27;20451;-32
2021/01/17 06:19:16;;;;;;;52.13;27.50;;;;;;;0.74;100.00;100273.47;5138332;27;20521;-36
2021/01/17 06:22:06;;;;;;;45.73;26.10;;;;;;;0.72;100.00;100270.00;5138122;27;20864;-36
2021/01/17 06:24:59;;;;;;;49.33;27.40;;;;;;;0.75;100.00;100277.75;5137528;27;20451;-34
2021/01/17 06:27:45;;;;;;;53.10;29.60;;;;;;;0.72;100.00;100273.41;5138032;28;20444;-37
2021/01/17 06:30:32;;;;;;;43.50;24.40;;;;;;;0.58;100.00;100272.13;5138160;28;20723;-34
2021/01/17 06:33:22;;;;;;;54.17;29.50;;;;;;;0.75;100.00;100282.84;5137967;28;20440;-32
2021/01/17 06:36:24;;;;;;;54.57;29.47;;;;;;;0.57;100.00;100278.91;5138003;28;20733;-31
2021/01/17 06:39:21;;;;;;;54.57;28.07;;;;;;;0.35;100.00;100273.94;5137937;28;20781;-35
2021/01/17 06:42:10;;;;;;;54.37;27.77;;;;;;;0.36;100.00;100280.78;5137837;28;20544;-33
2021/01/17 06:44:56;;;;;;;51.77;27.40;;;;;;;0.21;100.00;100292.97;5137967;28;20791;-33
2021/01/17 06:47:53;;;;;;;50.70;28.27;;;;;;;0.47;100.00;100286.19;5137473;28;20444;-34
2021/01/17 06:50:39;;;;;;;48.57;27.53;;;;;;;0.46;100.00;100287.00;5137999;28;20439;-32
2021/01/17 06:53:26;;;;;;;42.43;24.00;;;;;;;0.56;100.00;100294.13;5137888;28;20539;-31
2021/01/17 06:56:14;;;;;;;46.60;27.07;;;;;;;0.62;100.00;100287.53;5138189;28;20444;-31
2021/01/17 06:59:00;;;;;;;50.13;26.97;;;;;;;0.43;100.00;100295.38;5137545;28;20479;-32
2021/01/17 07:01:57;;;;;;;42.03;23.40;;;;;;;0.56;100.00;100294.13;5137886;28;20517;-32
2021/01/17 07:05:01;;;;;;;46.13;26.03;;;;;;;0.57;100.00;100306.03;5137818;28;20501;-32
2021/01/17 07:08:24;;;;;;;45.70;24.90;;;;;;;0.35;100.00;100307.03;5138091;28;20520;-33
2021/01/17 07:11:49;;;;;;;47.30;25.50;;;;;;;0.43;100.00;100307.25;5137648;28;20849;-32
2021/01/17 07:14:41;;;;;;;50.37;25.53;;;;;;;0.25;100.00;100312.59;5137928;28;20461;-32
2021/01/17 07:17:33;;;;;;;47.90;26.37;;;;;;;0.46;100.00;100307.34;5137948;28;20489;-31
2021/01/17 07:20:28;;;;;;;41.33;24.00;;;;;;;0.38;100.00;100306.25;5137425;28;20463;-33
2021/01/17 07:23:15;;;;;;;43.70;24.57;;;;;;;0.26;100.00;100310.09;5136831;28;20439;-33
2021/01/17 07:26:09;;;;;;;49.50;25.40;;;;;;;0.37;100.00;100305.41;5137684;28;20442;-32
2021/01/17 07:29:00;;;;;;;49.53;27.70;;;;;;;0.69;100.00;100316.59;5137783;28;20439;-33
2021/01/17 07:31:48;;;;;;;45.40;24.63;;;;;;;0.64;100.00;100318.13;5133676;27;20864;-30
2021/01/17 07:35:10;;;;;;;60.40;31.77;;;;;;;0.54;100.00;100322.06;5139953;27;20438;-35
2021/01/17 07:38:25;;;;;;;79.57;38.40;;;;;;;0.50;100.00;100327.84;5120589;28;20484;-33
2021/01/17 07:41:16;;;;;;;61.70;31.53;;;;;;;0.34;100.00;100336.69;5120801;28;20444;-34
2021/01/17 07:44:03;;;;;;;50.07;27.40;;;;;;;0.33;100.00;100332.41;5138261;27;20447;-33
2021/01/17 07:46:49;;;;;;;49.87;28.73;;;;;;;0.21;100.00;100342.16;5141182;27;20471;-33
2021/01/17 07:49:38;;;;;;;48.77;29.53;;;;;;;0.30;100.00;100355.19;5120942;28;20889;-35
2021/01/17 07:52:25;;;;;;;47.73;25.70;;;;;;;0.30;100.00;100349.22;5120477;28;20530;-34
2021/01/17 07:55:14;;;;;;;48.27;27.60;;;;;;;0.59;100.00;100350.22;5120924;28;20538;-35
2021/01/17 07:58:03;;;;;;;45.80;26.33;;;;;;;0.62;100.00;100355.38;5120341;28;20480;-34
2021/01/17 08:00:51;;;;;;;47.03;26.87;;;;;;;0.61;100.00;100359.59;5119671;28;20440;-36
2021/01/17 08:03:39;;;;;;;44.17;26.03;;;;;;;0.63;100.00;100362.19;5119686;28;20898;-34
2021/01/17 08:06:50;;;;;;;43.67;24.40;;;;;;;0.57;100.00;100367.97;5120272;28;20446;-36
2021/01/17 08:09:52;;;;;;;49.93;29.23;;;;;;;0.30;100.00;100356.88;5119945;28;20480;-35
2021/01/17 08:12:45;;;;;;;46.17;25.20;;;;;;;0.37;100.00;100365.59;5119665;28;20889;-33
2021/01/17 08:15:30;;;;;;;48.60;25.80;;;;;;;0.24;100.00;100372.78;5119800;28;20448;-32
2021/01/17 08:18:35;;;;;;;44.23;25.67;;;;;;;0.45;100.00;100369.22;5119728;28;20479;-32
2021/01/17 08:21:27;;;;;;;45.37;25.23;;;;;;;0.25;100.00;100364.34;5119970;28;20870;-34
2021/01/17 08:24:23;;;;;;;49.33;27.80;;;;;;;0.29;100.00;100361.09;5119559;28;20495;-32
2021/01/17 08:27:09;;;;;;;41.40;23.90;;;;;;;0.25;100.00;100363.47;5120187;28;20525;-33
2021/01/17 08:30:14;;;;;;;44.10;24.80;;;;;;;0.30;100.00;100367.91;5119775;28;20877;-34
2021/01/17 08:33:12;;;;;;;50.40;24.63;;;;;;;0.45;100.00;100374.31;5114709;28;20488;-34
2021/01/17 08:35:59;;;;;;;61.80;30.97;;;;;;;0.53;100.00;100378.84;5119593;28;20441;-34
2021/01/17 08:38:46;;;;;;;47.77;27.20;;;;;;;0.77;100.00;100376.25;5119001;28;20857;-32
2021/01/17 08:41:33;;;;;;;45.67;25.33;;;;;;;0.62;100.00;100380.81;5119147;28;20452;-35
2021/01/17 08:44:33;;;;;;;47.70;26.47;;;;;;;0.74;100.00;100375.28;5118798;28;20523;-32
2021/01/17 08:47:22;;;;;;;46.17;27.30;;;;;;;0.71;100.00;100380.28;5118771;28;20602;-34
2021/01/17 08:50:28;;;;;;;48.67;25.90;;;;;;;0.51;100.00;100382.16;5119466;28;20440;-34
2021/01/17 08:53:29;;;;;;;43.27;24.83;;;;;;;0.45;100.00;100387.03;5119105;28;20436;-37
2021/01/17 08:56:20;;;;;;;49.53;25.67;;;;;;;0.64;100.00;100391.91;5118591;28;20509;-31
2021/01/17 08:59:07;;;;;;;45.40;23.77;;;;;;;0.82;100.00;100400.16;5119041;28;20491;-32
2021/01/17 09:01:59;;;;;;;44.73;23.87;;;;;;;0.62;100.00;100403.72;5118898;28;20853;-31
2021/01/17 09:04:48;;;;;;;40.30;23.67;;;;;;;1.09;100.00;100395.09;5118448;28;20737;-36
2021/01/17 09:07:36;;;;;;;44.17;25.17;;;;;;;1.48;100.00;100404.75;5118810;28;20448;-36
2021/01/17 09:10:23;;;;;;;42.10;23.57;;;;;;;0.93;100.00;100403.94;5118393;28;20876;-31
2021/01/17 09:13:17;;;;;;;46.23;26.50;;;;;;;1.30;100.00;100397.44;5118258;28;20537;-31
2021/01/17 09:16:09;;;;;;;49.27;24.80;;;;;;;1.29;100.00;100408.44;5118685;28;20904;-34
2021/01/17 09:18:56;;;;;;;35.87;20.90;;;;;;;1.19;100.00;100419.19;5118685;28;20545;-34
2021/01/17 09:21:43;;;;;;;38.10;23.33;;;;;;;1.42;100.00;100415.63;5117972;28;20435;-33
2021/01/17 09:24:31;;;;;;;35.37;20.57;;;;;;;0.89;100.00;100422.47;5118290;28;20295;-36
2021/01/17 09:27:23;;;;;;;39.07;21.67;;;;;;;1.44;100.00;100419.09;5118265;28;20199;-31
2021/01/17 09:30:12;;;;;;;41.00;22.03;;;;;;;0.90;100.00;100425.88;5118225;28;20465;-32
2021/01/17 09:32:59;;;;;;;36.20;21.60;;;;;;;1.07;100.00;100427.28;5118112;28;20194;-32
2021/01/17 09:35:47;;;;;;;38.43;21.47;;;;;;;1.04;100.00;100435.69;5117821;28;20481;-35
2021/01/17 09:38:33;;;;;;;36.30;21.57;;;;;;;1.12;100.00;100440.16;5117981;28;20371;-34
2021/01/17 09:41:24;;;;;;;40.90;21.27;;;;;;;0.78;100.00;100444.16;5117820;28;20592;-31
2021/01/17 09:44:15;;;;;;;40.07;21.90;;;;;;;1.16;100.00;100447.97;5117282;28;20686;-34
2021/01/17 09:47:01;;;;;;;36.97;21.13;;;;;;;0.88;100.00;100465.69;5117367;28;20210;-33
2021/01/17 09:49:49;;;;;;;37.80;20.77;;;;;;;1.20;100.00;100467.59;5116935;28;20205;-32
2021/01/17 09:52:42;;;;;;;37.17;22.13;;;;;;;1.06;100.00;100465.44;5116986;28;20605;-32
2021/01/17 09:55:30;;;;;;;41.93;22.30;;;;;;;0.71;100.00;100467.69;5117945;28;20256;-38
2021/01/17 09:58:19;;;;;;;34.27;21.20;;;;;;;0.90;100.00;100461.53;5116588;28;20364;-38
2021/01/17 10:01:06;;;;;;;37.50;20.57;;;;;;;0.97;100.00;100471.97;5117650;28;20264;-37
2021/01/17 10:03:53;;;;;;;38.43;22.20;;;;;;;1.12;100.00;100470.72;5116619;28;20202;-33
2021/01/17 10:06:40;;;;;;;36.33;21.93;;;;;;;1.17;100.00;100467.53;5116888;28;20324;-34
2021/01/17 10:09:27;;;;;;;34.57;21.80;;;;;;;1.26;100.00;100474.56;5117624;28;20193;-36
2021/01/17 10:12:14;;;;;;;35.77;21.80;;;;;;;1.30;100.00;100474.72;5116911;28;20210;-34
2021/01/17 10:15:00;;;;;;;35.73;21.20;;;;;;;1.68;100.00;100465.72;5117310;28;20190;-34
2021/01/17 10:17:53;;;;;;;36.03;22.07;;;;;;;1.66;100.00;100476.69;5117170;28;20222;-34
2021/01/17 10:20:40;;;;;;;37.47;22.93;;;;;;;1.76;100.00;100468.50;5117584;28;20467;-32
2021/01/17 10:23:37;;;;;;;37.47;24.10;;;;;;;1.93;100.00;100474.97;5117973;27;20199;-33
2021/01/17 10:26:24;;;;;;;34.47;21.50;;;;;;;1.87;100.00;100473.91;5126300;27;20271;-33
2021/01/17 10:29:13;;;;;;;36.37;21.57;;;;;;;2.05;100.00;100472.75;5138005;28;20190;-33
2021/01/17 10:32:04;;;;;;;37.10;22.87;;;;;;;2.32;100.00;100475.22;5137241;28;20198;-32
2021/01/17 10:34:55;;;;;;;37.77;23.27;;;;;;;2.31;100.00;100483.72;5137452;28;20193;-35
2021/01/17 10:37:47;;;;;;;37.33;23.33;;;;;;;2.15;100.00;100489.22;5137037;28;20322;-34
2021/01/17 10:40:34;;;;;;;38.00;22.77;;;;;;;2.42;100.00;100484.84;5137359;28;20193;-34
2021/01/17 10:43:30;;;;;;;38.50;23.23;;;;;;;2.14;100.00;100490.03;5137231;28;20189;-33
2021/01/17 10:46:23;;;;;;;38.47;22.77;;;;;;;2.95;100.00;100485.44;5137241;28;20198;-34
2021/01/17 10:49:15;;;;;;;43.70;26.27;;;;;;;2.88;100.00;100492.88;5137513;28;20193;-34
2021/01/17 10:52:16;;;;;;;39.07;23.93;;;;;;;2.65;100.00;100492.28;5137285;28;20281;-34
2021/01/17 10:55:07;;;;;;;34.50;21.53;;;;;;;2.29;100.00;100490.44;5137757;28;20217;-32
2021/01/17 10:57:56;;;;;;;31.97;20.30;;;;;;;2.02;100.00;100487.09;5137199;28;20234;-34
2021/01/17 11:00:51;;;;;;;35.40;21.87;;;;;;;2.09;100.00;100483.91;5137616;28;20603;-36
2021/01/17 11:03:42;;;;;;;39.70;21.70;;;;;;;1.68;100.00;100488.66;5137020;28;20347;-34
2021/01/17 11:06:34;;;;;;;40.40;24.33;;;;;;;1.47;100.00;100484.59;5137762;28;20585;-37
2021/01/17 11:09:27;;;;;;;35.53;22.60;;;;;;;1.72;100.00;100485.41;5141368;27;20339;-34
2021/01/17 11:12:14;;;;;;;41.50;24.20;;;;;;;1.50;100.00;100485.56;5141355;27;20193;-35
2021/01/17 11:15:11;;;;;;;43.00;25.73;;;;;;;1.65;100.00;100480.91;5141019;27;20197;-33
2021/01/17 11:18:10;;;;;;;42.00;24.97;;;;;;;1.91;100.00;100481.69;5141027;27;20318;-34
2021/01/17 11:20:56;;;;;;;42.03;24.67;;;;;;;1.84;100.00;100486.56;5141352;27;20197;-32
2021/01/17 11:23:53;;;;;;;44.17;25.70;;;;;;;2.05;100.00;100489.75;5141085;27;20474;-38
2021/01/17 11:26:41;;;;;;;47.20;27.23;;;;;;;2.04;100.00;100488.88;5120487;28;20202;-35
2021/01/17 11:29:29;;;;;;;46.50;26.03;;;;;;;2.07;100.00;100480.44;5121132;28;20612;-34
2021/01/17 11:32:29;;;;;;;46.77;27.10;;;;;;;2.17;100.00;100477.38;5120779;28;20553;-35
2021/01/17 11:35:26;;;;;;;49.60;28.07;;;;;;;2.41;100.00;100485.69;5120831;28;20319;-33
2021/01/17 11:38:12;;;;;;;42.93;25.10;;;;;;;2.13;100.00;100480.66;5120300;28;20222;-34
2021/01/17 11:41:07;;;;;;;50.27;30.13;;;;;;;2.35;100.00;100470.22;5120578;28;20302;-33
2021/01/17 11:44:14;;;;;;;43.47;24.73;;;;;;;2.16;100.00;100454.34;5120373;28;20317;-36
2021/01/17 11:47:02;;;;;;;42.43;26.60;;;;;;;1.96;100.00;100456.34;5120249;28;20596;-33
2021/01/17 11:49:50;;;;;;;47.37;27.40;;;;;;;2.19;100.00;100455.31;5120157;28;20216;-36
2021/01/17 11:52:42;;;;;;;47.20;26.77;;;;;;;2.19;100.00;100468.06;5139123;27;20295;-37
2021/01/17 11:55:33;;;;;;;45.90;28.70;;;;;;;2.46;100.00;100470.50;5140143;27;20201;-39
2021/01/17 11:58:20;;;;;;;47.03;26.93;;;;;;;2.51;100.00;100470.63;5140454;27;20244;-36
2021/01/17 12:01:25;;;;;;;42.50;25.37;;;;;;;2.23;100.00;100474.97;5141347;27;20578;-34
2021/01/17 12:04:27;;;;;;;40.33;23.90;;;;;;;2.15;100.00;100471.34;5140812;27;20194;-35
2021/01/17 12:07:15;;;;;;;42.53;26.77;;;;;;;2.13;100.00;100464.47;5140843;27;20290;-34
2021/01/17 12:10:05;;;;;;;44.63;26.87;;;;;;;2.38;100.00;100460.09;5140929;27;20197;-35
2021/01/17 12:12:52;;;;;;;40.23;25.30;;;;;;;2.56;100.00;100461.41;5140663;27;20189;-33
2021/01/17 12:15:38;;;;;;;34.53;21.97;;;;;;;2.53;100.00;100459.63;5139510;27;20196;-34
2021/01/17 12:18:26;;;;;;;41.47;26.00;;;;;;;2.60;100.00;100460.69;5139518;27;20310;-35
2021/01/17 12:21:21;;;;;;;36.13;21.30;;;;;;;2.12;100.00;100468.72;5139606;27;20294;-37
2021/01/17 12:24:09;;;;;;;41.60;24.70;;;;;;;2.55;100.00;100480.97;5139712;27;20347;-34
2021/01/17 12:26:56;;;;;;;46.17;25.50;;;;;;;2.01;100.00;100472.63;5138229;27;20197;-35
2021/01/17 12:29:43;;;;;;;44.77;25.53;;;;;;;2.34;100.00;100465.94;5139819;27;20193;-33
2021/01/17 12:32:31;;;;;;;40.13;24.73;;;;;;;2.77;100.00;100461.97;5140112;27;20484;-36
2021/01/17 12:35:21;;;;;;;42.30;24.53;;;;;;;2.56;100.00;100467.38;5139410;27;20520;-35
2021/01/17 12:38:14;;;;;;;43.53;25.63;;;;;;;2.36;100.00;100459.19;5137272;27;20271;-34
2021/01/17 12:41:06;;;;;;;41.50;23.03;;;;;;;2.32;100.00;100462.47;5140123;27;20197;-38
2021/01/17 12:43:58;;;;;;;42.17;22.90;;;;;;;2.40;100.00;100450.75;5140198;27;20210;-33
2021/01/17 12:46:48;;;;;;;43.43;23.30;;;;;;;2.62;100.00;100456.44;5139214;27;20206;-34
2021/01/17 12:49:36;;;;;;;42.40;22.73;;;;;;;2.17;100.00;100462.06;5139844;27;20190;-32
2021/01/17 12:52:23;;;;;;;40.13;24.03;;;;;;;1.96;100.00;100453.78;5139028;27;20197;-32